Time;durP1;ratioP1;P1;durP2;ratioP2;P2;SDS_P1;SDS_P2;PMS_P1;PMS_P2;Temp;Humidity;BMP_temperature;BMP_pressure;BME280_temperature;BME280_humidity;BME280_pressure;Samples;Min_cycle;Max_cycle;Signal;HPM_P1;HPM_P2
2021/11/23 00:00:59;;;;;;;30.92;21.02;;;1.00;99.90;;;;;;5009411;28;21387;-81
2021/11/23 00:03:25;;;;;;;24.58;21.33;;;0.90;99.90;;;;;;5007492;28;20429;-81
2021/11/23 00:05:51;;;;;;;24.47;21.23;;;0.90;99.90;;;;;;5008842;28;20464;-82
2021/11/23 00:08:17;;;;;;;23.43;20.93;;;1.00;99.90;;;;;;4991588;28;20967;-82
2021/11/23 00:10:44;;;;;;;24.50;20.67;;;1.00;99.90;;;;;;5009334;28;20946;-81
2021/11/23 00:13:13;;;;;;;27.63;20.70;;;1.00;99.90;;;;;;5009437;28;20469;-82
2021/11/23 00:15:39;;;;;;;26.77;20.70;;;0.90;99.90;;;;;;5009524;28;20466;-81
2021/11/23 00:18:07;;;;;;;26.45;21.42;;;0.90;99.90;;;;;;5008908;28;20391;-83
2021/11/23 00:20:33;;;;;;;25.92;22.50;;;0.90;99.90;;;;;;5009446;28;20384;-82
2021/11/23 00:23:00;;;;;;;27.20;22.73;;;0.90;99.90;;;;;;5009419;28;20457;-81
2021/11/23 00:25:26;;;;;;;26.00;22.67;;;0.80;99.90;;;;;;5009626;28;20371;-81
2021/11/23 00:27:53;;;;;;;29.85;22.73;;;0.90;99.90;;;;;;4977279;28;20385;-82
2021/11/23 00:30:19;;;;;;;27.85;24.33;;;0.90;99.90;;;;;;4998975;28;20396;-81
2021/11/23 00:32:45;;;;;;;27.77;22.02;;;0.90;99.90;;;;;;5008658;28;20392;-81
2021/11/23 00:35:11;;;;;;;25.13;22.17;;;1.00;99.90;;;;;;4984968;28;20959;-81
2021/11/23 00:37:36;;;;;;;26.07;21.80;;;0.90;99.90;;;;;;4986228;28;20397;-82
2021/11/23 00:40:03;;;;;;;27.17;22.48;;;0.90;99.90;;;;;;5001042;28;20396;-82
2021/11/23 00:42:30;;;;;;;25.83;21.97;;;0.90;99.90;;;;;;4986550;28;20756;-81
2021/11/23 00:44:56;;;;;;;24.48;20.77;;;0.90;99.90;;;;;;5007807;28;20491;-81
2021/11/23 00:47:22;;;;;;;27.92;22.23;;;0.90;99.90;;;;;;5000737;28;20474;-81
2021/11/23 00:49:48;;;;;;;27.23;22.83;;;0.90;99.90;;;;;;4987698;28;20411;-81
2021/11/23 00:52:13;;;;;;;28.70;22.95;;;1.00;99.90;;;;;;4998272;28;20415;-81
2021/11/23 00:54:39;;;;;;;27.55;23.38;;;1.10;99.90;;;;;;5009211;28;20383;-81
2021/11/23 00:57:05;;;;;;;29.38;23.55;;;1.20;99.90;;;;;;5004416;28;20915;-81
2021/11/23 00:59:34;;;;;;;30.60;24.58;;;1.30;99.90;;;;;;4995890;28;20401;-81
2021/11/23 01:01:59;;;;;;;27.63;23.88;;;1.30;99.90;;;;;;4995185;28;20422;-82
2021/11/23 01:04:25;;;;;;;29.00;24.92;;;1.30;99.90;;;;;;5007305;28;20760;-80
2021/11/23 01:06:51;;;;;;;26.67;23.77;;;1.40;99.90;;;;;;4996075;28;20473;-81
2021/11/23 01:09:17;;;;;;;32.77;25.37;;;1.50;99.90;;;;;;4997507;28;20467;-81
2021/11/23 01:11:42;;;;;;;33.90;25.70;;;1.50;99.90;;;;;;4986353;28;20432;-82
2021/11/23 01:14:08;;;;;;;29.50;24.55;;;1.60;99.90;;;;;;4984261;28;20405;-81
2021/11/23 01:16:35;;;;;;;31.70;25.30;;;1.70;99.90;;;;;;5001270;28;20398;-82
2021/11/23 01:19:01;;;;;;;28.30;24.60;;;1.70;99.90;;;;;;5003272;28;20411;-81
2021/11/23 01:21:27;;;;;;;26.02;22.13;;;1.70;99.90;;;;;;4995615;28;20479;-81
2021/11/23 01:23:53;;;;;;;28.85;22.77;;;1.70;99.90;;;;;;4991734;28;20437;-82
2021/11/23 01:26:20;;;;;;;25.23;21.58;;;1.70;99.90;;;;;;5008189;28;20390;-82
2021/11/23 01:28:46;;;;;;;29.35;21.90;;;1.70;99.90;;;;;;5003185;28;20387;-81
2021/11/23 01:31:12;;;;;;;27.45;23.13;;;1.70;99.90;;;;;;4988562;28;20414;-82
2021/11/23 01:33:38;;;;;;;27.00;23.75;;;1.60;99.90;;;;;;4993423;28;20446;-82
2021/11/23 01:36:04;;;;;;;24.98;21.52;;;1.60;99.90;;;;;;4994397;28;20384;-81
2021/11/23 01:38:31;;;;;;;28.92;22.75;;;1.80;99.90;;;;;;5001572;28;20383;-81
2021/11/23 01:40:58;;;;;;;24.73;21.92;;;1.70;99.90;;;;;;4992430;28;20401;-81
2021/11/23 01:43:23;;;;;;;28.13;22.42;;;1.70;99.90;;;;;;4997800;28;20497;-81
2021/11/23 01:45:49;;;;;;;26.07;22.30;;;1.70;99.90;;;;;;4984986;28;20474;-81
2021/11/23 01:48:15;;;;;;;25.98;21.88;;;1.70;99.90;;;;;;5002843;28;20453;-81
2021/11/23 01:50:41;;;;;;;27.25;22.65;;;1.70;99.90;;;;;;4990805;28;20405;-82
2021/11/23 01:53:08;;;;;;;23.45;20.42;;;1.60;99.90;;;;;;5001216;28;20486;-82
2021/11/23 01:55:35;;;;;;;27.02;21.17;;;1.70;99.90;;;;;;4998394;28;20403;-81
2021/11/23 01:58:06;;;;;;;25.55;20.83;;;1.70;99.90;;;;;;4988944;28;20880;-81
2021/11/23 02:00:33;;;;;;;25.00;21.05;;;1.80;99.90;;;;;;4988422;28;20465;-81
2021/11/23 02:02:59;;;;;;;26.80;21.50;;;1.80;99.90;;;;;;4987592;28;20837;-81
2021/11/23 02:05:25;;;;;;;29.92;23.23;;;2.00;99.90;;;;;;4994151;28;20405;-81
2021/11/23 02:07:51;;;;;;;27.88;23.05;;;2.00;99.90;;;;;;4996458;28;20545;-81
2021/11/23 02:10:17;;;;;;;25.83;23.10;;;2.10;99.90;;;;;;4987735;28;20464;-81
2021/11/23 02:12:42;;;;;;;27.33;22.13;;;2.10;99.90;;;;;;4979163;28;20485;-82
2021/11/23 02:15:10;;;;;;;30.85;23.13;;;2.20;99.90;;;;;;4987153;28;20397;-81
2021/11/23 02:17:36;;;;;;;27.98;22.80;;;2.20;99.90;;;;;;5003779;28;20387;-81
2021/11/23 02:20:03;;;;;;;27.45;23.50;;;2.20;99.90;;;;;;4998038;28;20732;-81
2021/11/23 02:22:29;;;;;;;24.63;21.88;;;2.10;99.90;;;;;;5000570;28;20415;-82
2021/11/23 02:24:55;;;;;;;25.23;22.42;;;2.20;99.90;;;;;;4976498;28;20728;-81
2021/11/23 02:27:21;;;;;;;29.20;22.85;;;2.20;99.90;;;;;;5004132;28;20431;-81
2021/11/23 02:29:47;;;;;;;27.92;22.80;;;2.20;99.90;;;;;;5002619;28;20402;-81
2021/11/23 02:32:12;;;;;;;27.10;22.52;;;2.20;99.90;;;;;;5008792;28;20463;-81
2021/11/23 02:34:38;;;;;;;27.30;23.00;;;2.20;99.90;;;;;;5005053;28;20383;-81
2021/11/23 02:37:04;;;;;;;27.15;23.08;;;2.30;99.90;;;;;;5006998;28;20390;-81
2021/11/23 02:39:30;;;;;;;26.35;21.70;;;2.30;99.90;;;;;;4994033;28;20525;-82
2021/11/23 02:41:56;;;;;;;24.25;21.38;;;2.50;99.90;;;;;;5004474;28;21237;-82
2021/11/23 02:44:21;;;;;;;26.35;21.55;;;2.60;99.90;;;;;;5004280;28;20388;-81
2021/11/23 02:46:47;;;;;;;27.23;22.35;;;2.60;99.90;;;;;;5003654;28;20392;-81
2021/11/23 02:49:14;;;;;;;25.63;22.83;;;2.60;99.90;;;;;;5005836;28;20409;-81
2021/11/23 02:51:40;;;;;;;28.05;22.77;;;2.60;99.90;;;;;;5005944;28;20399;-82
2021/11/23 02:54:06;;;;;;;26.03;22.80;;;2.60;99.90;;;;;;5002115;28;20379;-81
2021/11/23 02:56:32;;;;;;;27.88;22.30;;;2.60;99.90;;;;;;4993843;28;20753;-82
2021/11/23 02:58:58;;;;;;;26.95;22.02;;;2.70;99.90;;;;;;5007225;28;20385;-82
2021/11/23 03:01:26;;;;;;;28.08;22.58;;;2.70;99.90;;;;;;4998117;28;20454;-82
2021/11/23 03:03:53;;;;;;;30.45;22.48;;;2.80;99.90;;;;;;5006393;28;20414;-81
2021/11/23 03:06:20;;;;;;;31.58;23.30;;;2.80;99.90;;;;;;5000778;28;20389;-81
2021/11/23 03:08:48;;;;;;;27.92;22.58;;;2.80;99.90;;;;;;4987919;28;20398;-82
2021/11/23 03:11:15;;;;;;;27.15;22.10;;;2.90;99.90;;;;;;5006040;28;20450;-81
2021/11/23 03:13:41;;;;;;;26.98;22.02;;;3.00;99.90;;;;;;4992938;28;20392;-81
2021/11/23 03:16:07;;;;;;;28.33;22.17;;;3.10;99.90;;;;;;5010131;28;20488;-82
2021/11/23 03:18:33;;;;;;;27.67;21.37;;;3.10;99.90;;;;;;4988077;28;20454;-83
2021/11/23 03:20:59;;;;;;;24.03;20.87;;;3.20;99.90;;;;;;4993483;28;20440;-82
2021/11/23 03:23:25;;;;;;;25.33;22.50;;;3.20;99.90;;;;;;4990466;28;20912;-82
2021/11/23 03:25:51;;;;;;;29.48;23.45;;;3.40;99.90;;;;;;4981944;28;20431;-81
2021/11/23 03:28:17;;;;;;;30.80;23.35;;;3.40;99.90;;;;;;4986090;28;21599;-82
2021/11/23 03:30:44;;;;;;;27.47;23.33;;;3.40;99.90;;;;;;5008422;28;20387;-81
2021/11/23 03:33:10;;;;;;;27.88;24.05;;;3.40;99.90;;;;;;5000148;28;20392;-82
2021/11/23 03:35:42;;;;;;;28.90;23.95;;;3.50;99.90;;;;;;5000046;28;20470;-81
2021/11/23 03:38:11;;;;;;;29.63;23.42;;;3.50;99.90;;;;;;4982881;28;20893;-81
2021/11/23 03:40:39;;;;;;;31.08;24.58;;;3.50;99.90;;;;;;5009925;28;20967;-82
2021/11/23 03:43:06;;;;;;;29.73;23.25;;;3.50;99.90;;;;;;5010155;28;20752;-81
2021/11/23 03:45:33;;;;;;;26.02;23.08;;;3.50;99.90;;;;;;4992581;28;20802;-82
2021/11/23 03:48:00;;;;;;;29.85;24.10;;;3.60;99.90;;;;;;4991820;28;20428;-81
2021/11/23 03:50:27;;;;;;;30.67;24.90;;;3.70;99.90;;;;;;4985813;28;20416;-82
2021/11/23 03:52:54;;;;;;;31.13;25.05;;;3.70;99.90;;;;;;4983109;28;20416;-81
2021/11/23 03:55:20;;;;;;;33.03;24.90;;;3.70;99.90;;;;;;4988157;28;20405;-82
2021/11/23 03:57:48;;;;;;;33.63;24.65;;;3.70;99.90;;;;;;4986137;28;20394;-82
2021/11/23 04:00:16;;;;;;;36.90;25.63;;;3.80;99.90;;;;;;5001185;28;20392;-82
2021/11/23 04:02:43;;;;;;;33.70;25.95;;;3.80;99.90;;;;;;5004637;28;20538;-82
2021/11/23 04:05:09;;;;;;;33.95;25.70;;;3.80;99.90;;;;;;5004817;28;20390;-82
2021/11/23 04:07:39;;;;;;;34.85;25.65;;;3.80;99.90;;;;;;4989580;28;20472;-82
2021/11/23 04:10:06;;;;;;;38.13;26.55;;;3.90;99.90;;;;;;5008692;28;20434;-82
2021/11/23 04:12:32;;;;;;;41.42;27.48;;;3.90;99.90;;;;;;5003263;28;20405;-82
2021/11/23 04:14:58;;;;;;;41.17;27.70;;;3.90;99.90;;;;;;4999140;28;20924;-82
2021/11/23 04:17:23;;;;;;;37.22;27.35;;;3.90;99.90;;;;;;5000183;28;20392;-81
2021/11/23 04:19:49;;;;;;;44.28;29.20;;;4.00;99.90;;;;;;4998470;28;20398;-83
2021/11/23 04:22:15;;;;;;;39.65;27.13;;;4.00;99.90;;;;;;4988147;28;20407;-81
2021/11/23 04:24:40;;;;;;;46.38;30.25;;;4.10;99.90;;;;;;4992268;28;20417;-81
2021/11/23 04:27:06;;;;;;;44.60;29.60;;;4.00;99.90;;;;;;5000017;28;20399;-82
2021/11/23 04:29:32;;;;;;;46.63;29.47;;;4.10;99.90;;;;;;5008815;28;20896;-82
2021/11/23 04:31:58;;;;;;;39.83;28.20;;;4.10;99.90;;;;;;4996364;28;20395;-82
2021/11/23 04:34:24;;;;;;;38.00;26.70;;;4.20;99.90;;;;;;4996363;28;21316;-82
2021/11/23 04:36:49;;;;;;;44.63;28.27;;;4.20;99.90;;;;;;4994015;28;20451;-82
2021/11/23 04:39:15;;;;;;;39.23;26.93;;;4.20;99.90;;;;;;4973770;28;20435;-81
2021/11/23 04:41:42;;;;;;;39.63;27.60;;;4.30;99.90;;;;;;4995548;28;20395;-81
2021/11/23 04:44:08;;;;;;;36.95;26.02;;;4.40;99.90;;;;;;4978818;28;20804;-80
2021/11/23 04:46:35;;;;;;;37.60;27.63;;;4.40;99.90;;;;;;4985184;28;20440;-81
2021/11/23 04:49:01;;;;;;;42.60;28.05;;;4.30;99.90;;;;;;4989899;28;20393;-81
2021/11/23 04:51:28;;;;;;;42.47;27.45;;;4.40;99.90;;;;;;4998042;28;20405;-81
2021/11/23 04:53:54;;;;;;;43.75;28.70;;;4.40;99.90;;;;;;4990596;28;20396;-80
2021/11/23 04:56:20;;;;;;;38.40;27.05;;;4.50;99.90;;;;;;5000048;28;20391;-81
2021/11/23 04:58:46;;;;;;;42.40;27.35;;;4.60;99.90;;;;;;5002709;28;20442;-82
2021/11/23 05:01:12;;;;;;;39.20;26.27;;;4.70;99.90;;;;;;5007941;28;20379;-81
2021/11/23 05:03:37;;;;;;;39.30;28.08;;;4.80;99.90;;;;;;5007655;28;20414;-81
2021/11/23 05:06:03;;;;;;;39.90;28.08;;;4.80;99.90;;;;;;4999879;28;20434;-82
2021/11/23 05:08:29;;;;;;;38.20;27.73;;;4.80;99.90;;;;;;4989543;28;20761;-81
2021/11/23 05:10:55;;;;;;;42.95;27.67;;;4.80;99.90;;;;;;4995816;28;20438;-82
2021/11/23 05:13:21;;;;;;;34.88;27.15;;;4.80;99.90;;;;;;5000538;28;20453;-82
2021/11/23 05:15:46;;;;;;;37.40;27.27;;;4.80;99.90;;;;;;5005589;28;20395;-81
2021/11/23 05:18:12;;;;;;;36.90;27.83;;;4.90;99.90;;;;;;4995397;28;20393;-81
2021/11/23 05:20:38;;;;;;;42.27;27.57;;;4.90;99.90;;;;;;5003362;28;20398;-81
2021/11/23 05:23:03;;;;;;;39.67;27.00;;;5.00;99.90;;;;;;4999552;28;20417;-81
2021/11/23 05:25:29;;;;;;;35.43;26.80;;;4.90;99.90;;;;;;4993125;28;20809;-81
2021/11/23 05:27:55;;;;;;;40.05;27.50;;;5.00;99.90;;;;;;4993656;28;20407;-81
2021/11/23 05:30:21;;;;;;;34.20;27.30;;;5.10;99.90;;;;;;5003054;28;20387;-81
2021/11/23 05:32:47;;;;;;;36.47;26.50;;;5.10;99.90;;;;;;5005932;28;20412;-81
2021/11/23 05:35:13;;;;;;;36.38;27.73;;;5.10;99.90;;;;;;4980989;28;20406;-81
2021/11/23 05:37:40;;;;;;;40.53;27.65;;;5.20;99.90;;;;;;4977157;28;20739;-80
2021/11/23 05:40:07;;;;;;;36.78;27.77;;;5.10;99.90;;;;;;4997852;28;21263;-81
2021/11/23 05:42:34;;;;;;;39.00;28.45;;;5.20;99.90;;;;;;5003288;28;20458;-81
2021/11/23 05:44:59;;;;;;;39.83;29.08;;;5.20;99.90;;;;;;4990371;28;20883;-81
2021/11/23 05:47:26;;;;;;;38.63;29.07;;;5.20;99.90;;;;;;4999308;28;20381;-81
2021/11/23 05:49:52;;;;;;;43.28;30.73;;;5.30;99.90;;;;;;4980257;28;20388;-81
2021/11/23 05:52:18;;;;;;;43.17;31.25;;;5.30;99.90;;;;;;4991824;28;20899;-81
2021/11/23 05:54:46;;;;;;;39.67;30.05;;;5.20;99.90;;;;;;4995339;28;20392;-81
2021/11/23 05:57:13;;;;;;;42.40;30.90;;;5.30;99.90;;;;;;4983954;28;20406;-81
2021/11/23 05:59:38;;;;;;;42.47;30.63;;;5.30;99.90;;;;;;4995127;28;20387;-81
2021/11/23 06:02:04;;;;;;;46.37;32.33;;;5.30;99.90;;;;;;4980420;28;20954;-80
2021/11/23 06:04:30;;;;;;;52.25;33.05;;;5.30;99.90;;;;;;4987931;28;20385;-81
2021/11/23 06:06:56;;;;;;;50.47;33.13;;;5.30;99.90;;;;;;4993254;28;20908;-81
2021/11/23 06:09:22;;;;;;;52.88;35.28;;;5.30;99.90;;;;;;4988474;28;20965;-80
2021/11/23 06:11:48;;;;;;;54.90;33.78;;;5.30;99.90;;;;;;4988986;28;20475;-81
2021/11/23 06:14:13;;;;;;;52.20;34.33;;;5.30;99.90;;;;;;5000765;28;20413;-80
2021/11/23 06:16:44;;;;;;;54.10;34.30;;;5.30;99.90;;;;;;4971734;28;20528;-81
2021/11/23 06:19:10;;;;;;;55.70;34.92;;;5.30;99.90;;;;;;4988832;28;20385;-81
2021/11/23 06:21:36;;;;;;;49.05;32.55;;;5.40;99.90;;;;;;4988798;28;20405;-81
2021/11/23 06:24:02;;;;;;;63.63;36.65;;;5.50;99.90;;;;;;4988848;28;20404;-81
2021/11/23 06:26:28;;;;;;;58.67;35.72;;;5.40;99.90;;;;;;4988948;28;20404;-81
2021/11/23 06:28:54;;;;;;;56.17;34.70;;;5.40;99.90;;;;;;4988931;28;20392;-80
2021/11/23 06:31:20;;;;;;;58.50;35.13;;;5.40;99.90;;;;;;5001248;28;20425;-81
2021/11/23 06:33:46;;;;;;;61.13;35.78;;;5.40;99.90;;;;;;4990519;28;20402;-81
2021/11/23 06:36:12;;;;;;;58.63;36.13;;;5.50;99.90;;;;;;4984249;28;20393;-81
2021/11/23 06:38:37;;;;;;;62.97;37.47;;;5.50;99.90;;;;;;4987558;28;20965;-81
2021/11/23 06:41:03;;;;;;;67.25;35.95;;;5.40;99.90;;;;;;4987995;28;20472;-81
2021/11/23 06:43:29;;;;;;;61.10;36.78;;;5.50;99.90;;;;;;4970929;28;20425;-83
2021/11/23 06:45:57;;;;;;;67.57;37.63;;;5.50;99.90;;;;;;4971703;28;20416;-82
2021/11/23 06:48:23;;;;;;;64.35;36.75;;;5.50;99.90;;;;;;4988797;28;20468;-81
2021/11/23 06:50:49;;;;;;;60.10;36.43;;;5.60;99.90;;;;;;4988714;28;20578;-82
2021/11/23 06:53:15;;;;;;;67.07;36.97;;;5.60;99.90;;;;;;4988607;28;20523;-81
2021/11/23 06:55:41;;;;;;;63.80;36.85;;;5.60;99.90;;;;;;4978193;28;20477;-82
2021/11/23 06:58:07;;;;;;;67.63;36.90;;;5.60;99.90;;;;;;4985686;28;20413;-82
2021/11/23 07:00:33;;;;;;;73.43;39.00;;;5.60;99.90;;;;;;4988984;28;20413;-82
2021/11/23 07:02:59;;;;;;;67.45;36.40;;;5.70;99.90;;;;;;5002708;28;20415;-84
2021/11/23 07:05:25;;;;;;;59.15;35.20;;;5.70;99.90;;;;;;5010460;28;20395;-81
2021/11/23 07:07:51;;;;;;;64.55;35.95;;;5.70;99.90;;;;;;5007803;28;20994;-79
2021/11/23 07:10:16;;;;;;;67.38;35.97;;;5.80;99.90;;;;;;4993901;28;20394;-81
2021/11/23 07:12:42;;;;;;;66.00;34.47;;;5.80;99.90;;;;;;4994413;28;20416;-81
2021/11/23 07:15:10;;;;;;;65.85;35.28;;;5.80;99.90;;;;;;4992405;28;20497;-81
2021/11/23 07:17:35;;;;;;;60.47;34.15;;;5.80;99.90;;;;;;4991071;28;20381;-80
2021/11/23 07:20:02;;;;;;;62.60;35.60;;;5.80;99.90;;;;;;4992152;28;20498;-80
2021/11/23 07:22:28;;;;;;;65.23;35.43;;;5.80;99.90;;;;;;4986628;28;20408;-81
2021/11/23 07:24:54;;;;;;;71.53;34.70;;;5.80;99.90;;;;;;4998600;28;20384;-80
2021/11/23 07:27:20;;;;;;;58.10;34.87;;;5.80;99.90;;;;;;4991782;28;20396;-80
2021/11/23 07:29:46;;;;;;;61.33;34.65;;;5.90;99.90;;;;;;4991965;28;20738;-80
2021/11/23 07:32:12;;;;;;;66.55;35.50;;;5.90;99.90;;;;;;4999835;28;20411;-81
2021/11/23 07:34:39;;;;;;;66.55;35.42;;;5.90;99.90;;;;;;4991810;28;20742;-81
2021/11/23 07:37:05;;;;;;;61.60;34.60;;;6.00;99.90;;;;;;4982373;28;20389;-81
2021/11/23 07:39:31;;;;;;;73.05;36.53;;;6.00;99.90;;;;;;5010054;28;20379;-81
2021/11/23 07:41:57;;;;;;;62.70;34.85;;;5.90;99.90;;;;;;4992211;28;20383;-81
2021/11/23 07:44:23;;;;;;;77.60;35.73;;;6.00;99.90;;;;;;4991509;28;20556;-80
2021/11/23 07:46:49;;;;;;;72.47;36.73;;;6.00;99.90;;;;;;4986735;28;20387;-81
2021/11/23 07:49:14;;;;;;;70.65;36.08;;;6.00;99.90;;;;;;4974108;28;20381;-81
2021/11/23 07:51:41;;;;;;;66.57;35.40;;;6.00;99.90;;;;;;4991218;28;20377;-80
2021/11/23 07:54:07;;;;;;;68.73;34.43;;;6.00;99.90;;;;;;4980883;28;20410;-81
2021/11/23 07:56:33;;;;;;;72.13;36.23;;;6.10;99.90;;;;;;4986029;28;20391;-81
2021/11/23 07:58:59;;;;;;;72.53;38.67;;;6.10;99.90;;;;;;4988714;28;20379;-82
2021/11/23 08:01:25;;;;;;;73.73;37.93;;;6.10;99.90;;;;;;4974420;28;20425;-81
2021/11/23 08:03:51;;;;;;;64.47;35.03;;;6.10;99.90;;;;;;5009702;28;20451;-80
2021/11/23 08:06:18;;;;;;;64.50;34.63;;;6.20;99.90;;;;;;5001623;28;20391;-81
2021/11/23 08:08:45;;;;;;;74.65;35.00;;;6.10;99.90;;;;;;4991358;28;20415;-82
2021/11/23 08:11:11;;;;;;;60.22;32.38;;;6.10;99.90;;;;;;5004024;28;20389;-80
2021/11/23 08:13:38;;;;;;;58.00;32.30;;;6.20;99.90;;;;;;4972355;28;20763;-81
2021/11/23 08:16:04;;;;;;;58.60;31.50;;;6.20;99.90;;;;;;5005117;28;20381;-82
2021/11/23 08:18:34;;;;;;;53.22;30.17;;;6.30;99.90;;;;;;5003457;28;20753;-82
2021/11/23 08:21:01;;;;;;;59.08;32.13;;;6.40;99.90;;;;;;4993360;28;20391;-80
2021/11/23 08:23:28;;;;;;;61.03;30.27;;;6.50;99.90;;;;;;5003048;28;20413;-81
2021/11/23 08:25:55;;;;;;;51.57;29.70;;;6.50;99.90;;;;;;4972439;28;21147;-82
2021/11/23 08:28:24;;;;;;;54.33;29.75;;;6.60;99.90;;;;;;4989780;28;20739;-82
2021/11/23 08:30:51;;;;;;;53.78;29.45;;;6.60;99.90;;;;;;4978699;28;20392;-82
2021/11/23 08:33:17;;;;;;;47.87;29.03;;;6.60;99.90;;;;;;5006320;28;20507;-82
2021/11/23 08:35:43;;;;;;;52.20;28.35;;;6.60;99.90;;;;;;4996484;28;20388;-82
2021/11/23 08:38:09;;;;;;;50.08;29.15;;;6.60;99.90;;;;;;4988907;28;20417;-81
2021/11/23 08:40:37;;;;;;;49.15;27.90;;;6.60;99.90;;;;;;4991353;28;20897;-82
2021/11/23 08:43:04;;;;;;;50.23;28.17;;;6.70;99.90;;;;;;5000593;28;20902;-81
2021/11/23 08:45:29;;;;;;;45.25;27.45;;;6.80;99.90;;;;;;4989380;28;20393;-81
2021/11/23 08:47:55;;;;;;;44.85;26.73;;;6.80;99.90;;;;;;4996294;28;20389;-82
2021/11/23 08:50:23;;;;;;;49.67;27.95;;;6.80;99.90;;;;;;4987468;28;20404;-82
2021/11/23 08:52:49;;;;;;;52.07;28.50;;;6.90;99.90;;;;;;4984880;28;20501;-82
2021/11/23 08:55:15;;;;;;;48.88;26.90;;;6.90;99.90;;;;;;4989646;28;20479;-81
2021/11/23 08:57:41;;;;;;;47.30;28.73;;;6.90;99.90;;;;;;4972319;28;20400;-81
2021/11/23 09:00:19;;;;;;;49.35;28.63;;;6.80;99.90;;;;;;4972235;28;20475;-81
2021/11/23 09:02:49;;;;;;;57.40;29.87;;;6.80;99.90;;;;;;4995911;28;20561;-82
2021/11/23 09:05:16;;;;;;;45.00;27.50;;;6.80;99.90;;;;;;5002089;28;20940;-82
2021/11/23 09:07:43;;;;;;;47.20;27.92;;;6.90;99.90;;;;;;4984499;28;20466;-81
2021/11/23 09:10:17;;;;;;;45.30;27.50;;;6.90;99.90;;;;;;4997219;28;20963;-82
2021/11/23 09:12:42;;;;;;;48.55;27.63;;;7.00;99.90;;;;;;4998938;28;20769;-82
2021/11/23 09:15:09;;;;;;;46.27;27.50;;;6.90;99.90;;;;;;5005176;28;20389;-82
2021/11/23 09:17:34;;;;;;;42.08;25.75;;;6.90;99.90;;;;;;5002013;28;20422;-82
2021/11/23 09:20:00;;;;;;;44.75;26.48;;;7.00;99.90;;;;;;5007450;28;20391;-82
2021/11/23 09:22:28;;;;;;;44.03;27.23;;;7.00;99.90;;;;;;5006009;28;20407;-81
2021/11/23 09:24:54;;;;;;;40.78;26.15;;;7.00;99.90;;;;;;4988407;28;20412;-82
2021/11/23 09:27:20;;;;;;;40.03;25.17;;;7.10;99.90;;;;;;5001031;28;20502;-82
2021/11/23 09:29:45;;;;;;;43.73;25.60;;;7.20;99.90;;;;;;5007888;28;20815;-81
2021/11/23 09:32:13;;;;;;;40.47;26.67;;;7.10;99.90;;;;;;4991157;28;20467;-81
2021/11/23 09:34:39;;;;;;;40.83;26.23;;;7.10;99.90;;;;;;5007970;28;20427;-82
2021/11/23 09:37:05;;;;;;;47.05;27.42;;;7.20;99.90;;;;;;5000813;28;20391;-80
2021/11/23 09:39:31;;;;;;;40.85;26.42;;;7.20;99.90;;;;;;5004556;28;20935;-81
2021/11/23 09:41:56;;;;;;;39.97;25.38;;;7.20;99.90;;;;;;4997117;28;20393;-81
2021/11/23 09:44:23;;;;;;;41.38;26.33;;;7.10;99.90;;;;;;4988744;28;20387;-82
2021/11/23 09:46:49;;;;;;;43.07;26.70;;;7.20;99.90;;;;;;4988801;28;20416;-82
2021/11/23 09:49:15;;;;;;;40.03;26.30;;;7.20;99.90;;;;;;4996790;28;20846;-82
2021/11/23 09:51:41;;;;;;;40.50;26.83;;;7.20;99.90;;;;;;4998865;28;20394;-82
2021/11/23 09:54:09;;;;;;;38.42;25.77;;;7.20;99.90;;;;;;4972677;28;20969;-81
2021/11/23 09:56:36;;;;;;;40.53;27.43;;;7.30;99.90;;;;;;4989793;28;20397;-80
2021/11/23 09:59:04;;;;;;;39.60;24.93;;;7.40;99.90;;;;;;4988730;28;21026;-81
2021/11/23 10:01:32;;;;;;;33.78;23.60;;;7.40;99.90;;;;;;4991095;28;20377;-81
2021/11/23 10:04:05;;;;;;;32.75;23.08;;;7.40;99.90;;;;;;5004184;28;20426;-82
2021/11/23 10:06:32;;;;;;;32.08;23.35;;;7.40;99.90;;;;;;5004774;28;20398;-82
2021/11/23 10:08:58;;;;;;;33.45;23.10;;;7.40;99.90;;;;;;4983022;28;20461;-81
2021/11/23 10:11:27;;;;;;;30.60;22.33;;;7.40;99.90;;;;;;4989827;28;20386;-81
2021/11/23 10:13:56;;;;;;;30.95;21.90;;;7.50;99.90;;;;;;4989846;28;20386;-81
2021/11/23 10:16:23;;;;;;;29.33;21.23;;;7.50;99.90;;;;;;4987756;28;20419;-82
2021/11/23 10:18:50;;;;;;;30.27;21.10;;;7.50;99.90;;;;;;4992059;28;20491;-82
2021/11/23 10:21:18;;;;;;;24.98;19.48;;;7.50;99.90;;;;;;4988799;28;20427;-81
2021/11/23 10:23:52;;;;;;;28.23;20.07;;;7.70;99.90;;;;;;4989119;28;20415;-82
2021/11/23 10:26:29;;;;;;;28.08;20.92;;;7.70;99.90;;;;;;4980514;28;20393;-82
2021/11/23 10:28:58;;;;;;;28.97;21.13;;;7.70;99.90;;;;;;4982667;28;20381;-81
2021/11/23 10:31:30;;;;;;;31.63;20.67;;;7.60;99.90;;;;;;4979308;28;20403;-81
2021/11/23 10:33:58;;;;;;;26.88;20.20;;;7.70;99.90;;;;;;4987386;28;20879;-82
2021/11/23 10:36:31;;;;;;;28.53;21.13;;;7.70;99.90;;;;;;4982271;28;20396;-82
2021/11/23 10:39:10;;;;;;;29.83;21.23;;;7.70;99.90;;;;;;4987521;28;20406;-82
2021/11/23 10:41:37;;;;;;;29.13;19.73;;;7.80;99.90;;;;;;4996944;28;21235;-82
2021/11/23 10:44:05;;;;;;;27.80;20.42;;;7.90;99.90;;;;;;5000658;28;20494;-82
2021/11/23 10:46:32;;;;;;;29.27;20.80;;;8.00;99.90;;;;;;5010479;28;20389;-81
2021/11/23 10:49:00;;;;;;;28.63;21.33;;;7.90;99.90;;;;;;5010904;28;20383;-82
2021/11/23 10:51:36;;;;;;;29.92;21.00;;;7.90;99.90;;;;;;4989733;28;20900;-81
2021/11/23 10:54:16;;;;;;;28.65;21.05;;;7.90;99.90;;;;;;4985152;28;20405;-81
2021/11/23 10:56:59;;;;;;;27.13;19.20;;;7.90;99.90;;;;;;4994285;28;20430;-82
2021/11/23 10:59:25;;;;;;;33.27;21.07;;;7.90;99.90;;;;;;4997157;28;20390;-80
2021/11/23 11:01:52;;;;;;;29.05;20.83;;;7.90;99.90;;;;;;5009729;28;20470;-81
2021/11/23 11:04:19;;;;;;;28.02;19.88;;;7.90;99.90;;;;;;5010391;28;20383;-81
2021/11/23 11:06:49;;;;;;;25.75;19.50;;;8.10;99.90;;;;;;5003766;28;20897;-81
2021/11/23 11:09:17;;;;;;;25.73;18.25;;;8.30;99.90;;;;;;5003854;28;21058;-81
2021/11/23 11:11:43;;;;;;;26.70;18.77;;;8.30;99.90;;;;;;4996871;28;20393;-82
2021/11/23 11:14:12;;;;;;;27.05;18.80;;;8.40;99.90;;;;;;5004931;28;20443;-81
2021/11/23 11:16:39;;;;;;;26.88;18.70;;;8.60;99.90;;;;;;4984316;28;20730;-82
2021/11/23 11:19:08;;;;;;;23.30;17.63;;;8.60;99.90;;;;;;5005646;28;20423;-82
2021/11/23 11:21:41;;;;;;;23.63;17.60;;;8.60;99.90;;;;;;5003306;28;20393;-83
2021/11/23 11:24:35;;;;;;;26.35;18.05;;;8.60;99.90;;;;;;4993725;28;20419;-82
2021/11/23 11:27:13;;;;;;;23.77;18.48;;;8.60;99.90;;;;;;4996411;28;20395;-81
2021/11/23 11:29:39;;;;;;;25.08;18.20;;;8.60;99.90;;;;;;5005941;28;20406;-82
2021/11/23 11:32:06;;;;;;;22.70;17.83;;;8.60;99.90;;;;;;4997771;28;20470;-82
2021/11/23 11:34:36;;;;;;;23.90;17.40;;;8.60;99.90;;;;;;5003045;28;20387;-81
2021/11/23 11:37:11;;;;;;;25.42;17.38;;;8.60;99.90;;;;;;4985092;28;20393;-82
2021/11/23 11:39:40;;;;;;;21.45;16.08;;;8.50;99.90;;;;;;4997948;28;20407;-81
2021/11/23 11:42:07;;;;;;;26.25;17.98;;;8.60;99.90;;;;;;4994331;28;20514;-82
2021/11/23 11:44:46;;;;;;;25.90;17.90;;;8.60;99.90;;;;;;4989582;28;20402;-82
2021/11/23 11:47:13;;;;;;;22.87;16.80;;;8.50;99.90;;;;;;4991221;28;20419;-80
2021/11/23 11:49:48;;;;;;;23.30;16.75;;;8.60;99.90;;;;;;4989713;28;20428;-84
2021/11/23 11:52:15;;;;;;;26.70;17.15;;;8.50;99.90;;;;;;4988657;28;20427;-83
2021/11/23 11:54:41;;;;;;;23.02;16.40;;;8.50;99.90;;;;;;4997710;28;20776;-82
2021/11/23 11:57:29;;;;;;;21.75;16.23;;;8.50;99.90;;;;;;4976398;28;20389;-82
2021/11/23 11:59:55;;;;;;;24.30;16.80;;;8.50;99.90;;;;;;4994211;28;20381;-81
2021/11/23 12:02:24;;;;;;;20.98;15.35;;;8.40;99.90;;;;;;4994746;28;20422;-81
2021/11/23 12:05:00;;;;;;;22.27;16.73;;;8.40;99.90;;;;;;4998158;28;20422;-82
2021/11/23 12:07:40;;;;;;;21.35;15.95;;;8.50;99.90;;;;;;4993414;28;21192;-81
2021/11/23 12:10:19;;;;;;;19.38;14.80;;;8.60;99.90;;;;;;4994396;28;20393;-81
2021/11/23 12:12:57;;;;;;;19.10;13.73;;;8.70;99.90;;;;;;5002445;28;20888;-81
2021/11/23 12:15:52;;;;;;;20.50;14.57;;;8.80;99.90;;;;;;5007072;28;20383;-82
2021/11/23 12:18:44;;;;;;;18.38;14.40;;;8.70;99.90;;;;;;4975226;28;20389;-82
2021/11/23 12:21:15;;;;;;;20.08;14.88;;;8.60;99.90;;;;;;4990136;28;20395;-83
2021/11/23 12:23:49;;;;;;;19.38;14.85;;;8.60;99.90;;;;;;4988970;28;20409;-82
2021/11/23 12:26:19;;;;;;;21.33;15.07;;;8.60;99.90;;;;;;4985846;28;20407;-82
2021/11/23 12:29:05;;;;;;;19.10;14.23;;;8.60;99.90;;;;;;4989417;28;20491;-85
2021/11/23 12:31:34;;;;;;;24.67;16.30;;;8.50;99.90;;;;;;4986640;28;21086;-82
2021/11/23 12:34:04;;;;;;;20.63;15.45;;;8.60;99.90;;;;;;5001213;28;20455;-83
2021/11/23 12:36:34;;;;;;;20.35;15.63;;;8.50;99.90;;;;;;5006256;28;20405;-83